createdAt,value
2023-02-24T00:01:25.626Z,98137.38
2023-02-24T00:03:53.234Z,98140.06
2023-02-24T00:06:20.056Z,98132.09
2023-02-24T00:08:47.453Z,98131.25
2023-02-24T00:11:15.285Z,98121.50
2023-02-24T00:13:46.638Z,98114.25
2023-02-24T00:16:17.850Z,98119.78
2023-02-24T00:18:45.403Z,98113.81
2023-02-24T00:21:15.104Z,98118.19
2023-02-24T00:23:43.858Z,98120.03
2023-02-24T00:26:11.215Z,98116.13
2023-02-24T00:28:38.666Z,98112.22
2023-02-24T00:31:16.304Z,98111.97
2023-02-24T00:33:44.479Z,98105.72
2023-02-24T00:36:17.009Z,98108.56
2023-02-24T00:38:47.291Z,98097.06
2023-02-24T00:41:15.701Z,98099.88
2023-02-24T00:43:49.334Z,98100.72
2023-02-24T00:46:17.478Z,98089.25
2023-02-24T00:48:45.972Z,98084.00
2023-02-24T00:51:17.255Z,98089.38
2023-02-24T00:53:44.651Z,98087.66
2023-02-24T00:56:16.255Z,98091.47
2023-02-24T00:58:44.987Z,98084.13
2023-02-24T01:01:14.380Z,98080.13
2023-02-24T01:03:42.387Z,98071.50
2023-02-24T01:06:09.509Z,98072.03
2023-02-24T01:08:40.187Z,98068.09
2023-02-24T01:11:25.697Z,98069.06
2023-02-24T01:13:52.978Z,98059.31
2023-02-24T01:16:19.870Z,98061.28
2023-02-24T01:18:49.827Z,98047.69
2023-02-24T01:21:18.007Z,98057.84
2023-02-24T01:23:49.098Z,98053.34
2023-02-24T01:26:16.495Z,98050.66
2023-02-24T01:28:47.049Z,98041.44
2023-02-24T01:31:16.195Z,98050.50
2023-02-24T01:33:45.833Z,98044.25
2023-02-24T01:36:20.298Z,98039.13
2023-02-24T01:38:49.093Z,98034.63
2023-02-24T01:41:17.633Z,98028.53
2023-02-24T01:44:02.088Z,98026.56
2023-02-24T01:46:33.234Z,98024.84
2023-02-24T01:49:21.905Z,98022.00
2023-02-24T01:51:52.434Z,98018.47
2023-02-24T01:54:21.599Z,98018.72
2023-02-24T01:56:49.938Z,98015.78
2023-02-24T01:59:17.179Z,98013.22
2023-02-24T02:01:46.007Z,98010.28
2023-02-24T02:04:34.053Z,98013.69
2023-02-24T02:07:01.334Z,98006.56
2023-02-24T02:09:28.510Z,98009.53
2023-02-24T02:11:55.287Z,97996.81
2023-02-24T02:14:23.634Z,97995.81
2023-02-24T02:17:06.329Z,97990.69
2023-02-24T02:20:07.842Z,97990.09
2023-02-24T02:22:51.032Z,97990.97
2023-02-24T02:25:25.525Z,97998.75
2023-02-24T02:28:32.653Z,98001.31
2023-02-24T02:31:33.918Z,97990.09
2023-02-24T02:34:19.426Z,97996.94
2023-02-24T02:36:55.714Z,97995.94
2023-02-24T02:39:34.200Z,97990.69
2023-02-24T02:42:34.090Z,97983.22
2023-02-24T02:45:05.260Z,97989.00
2023-02-24T02:47:37.505Z,97982.91
2023-02-24T02:50:18.659Z,97975.94
2023-02-24T02:53:00.827Z,97974.84
2023-02-24T02:55:27.668Z,97970.28
2023-02-24T02:57:55.222Z,97974.97
2023-02-24T03:00:24.217Z,97961.09
2023-02-24T03:02:52.319Z,97953.16
2023-02-24T03:05:21.393Z,97950.00
2023-02-24T03:07:53.268Z,97945.63
2023-02-24T03:10:22.598Z,97947.19
2023-02-24T03:12:52.156Z,97937.56
2023-02-24T03:15:21.090Z,97942.22
2023-02-24T03:17:50.080Z,97934.16
2023-02-24T03:20:29.402Z,97937.81
2023-02-24T03:23:00.227Z,97936.53
2023-02-24T03:25:33.915Z,97938.66
2023-02-24T03:28:05.749Z,97934.41
2023-02-24T03:30:38.028Z,97944.47
2023-02-24T03:33:07.333Z,97941.59
2023-02-24T03:35:38.082Z,97933.69
2023-02-24T03:38:06.406Z,97937.09
2023-02-24T03:40:36.023Z,97927.44
2023-02-24T03:43:27.925Z,97930.25
2023-02-24T03:45:54.909Z,97927.69
2023-02-24T03:48:22.013Z,97915.25
2023-02-24T03:50:49.633Z,97916.94
2023-02-24T03:53:31.156Z,97912.44
2023-02-24T03:56:01.131Z,97915.25
2023-02-24T03:58:32.249Z,97909.88
2023-02-24T04:01:07.629Z,97898.09
2023-02-24T04:04:02.718Z,97904.09
2023-02-24T04:06:44.627Z,97894.97
2023-02-24T04:09:36.103Z,97892.84
2023-02-24T04:12:05.176Z,97891.75
2023-02-24T04:14:34.677Z,97887.47
2023-02-24T04:17:07.933Z,97897.78
2023-02-24T04:19:38.479Z,97889.00
2023-02-24T04:22:06.711Z,97880.09
2023-02-24T04:24:33.807Z,97882.38
2023-02-24T04:27:01.221Z,97876.41
2023-02-24T04:29:35.436Z,97868.31
2023-02-24T04:32:09.793Z,97877.53
2023-02-24T04:34:37.548Z,97876.25
2023-02-24T04:37:04.304Z,97859.41
2023-02-24T04:39:31.508Z,97859.41
2023-02-24T04:42:01.726Z,97858.00
2023-02-24T04:44:29.189Z,97851.91
2023-02-24T04:46:56.576Z,97845.66
2023-02-24T04:49:23.711Z,97840.25
2023-02-24T04:51:51.628Z,97836.34
2023-02-24T04:54:20.118Z,97833.91
2023-02-24T04:56:50.939Z,97828.53
2023-02-24T04:59:19.073Z,97820.31
2023-02-24T05:01:45.912Z,97807.47
2023-02-24T05:04:14.082Z,97807.84
2023-02-24T05:06:43.982Z,97810.09
2023-02-24T05:09:15.029Z,97806.16
2023-02-24T05:11:42.620Z,97794.94
2023-02-24T05:14:16.287Z,97793.25
2023-02-24T05:16:43.749Z,97795.09
2023-02-24T05:19:30.567Z,97794.22
2023-02-24T05:22:00.153Z,97782.63
2023-02-24T05:24:29.142Z,97787.16
2023-02-24T05:26:59.750Z,97782.50
2023-02-24T05:29:28.472Z,97781.78
2023-02-24T05:31:59.651Z,97785.00
2023-02-24T05:34:27.520Z,97782.31
2023-02-24T05:36:54.294Z,97796.59
2023-02-24T05:39:21.686Z,97808.22
2023-02-24T05:41:49.527Z,97809.06
2023-02-24T05:44:22.633Z,97809.91
2023-02-24T05:46:51.307Z,97803.97
2023-02-24T05:49:27.400Z,97801.41
2023-02-24T05:51:58.065Z,97794.31
2023-02-24T05:54:29.528Z,97796.47
2023-02-24T05:57:00.416Z,97794.66
2023-02-24T05:59:32.631Z,97794.00
2023-02-24T06:02:00.828Z,97794.84
2023-02-24T06:04:39.404Z,97798.69
2023-02-24T06:07:19.361Z,97793.69
2023-02-24T06:09:53.860Z,97800.19
2023-02-24T06:12:21.754Z,97798.63
2023-02-24T06:14:49.018Z,97793.00
2023-02-24T06:17:17.073Z,97792.66
2023-02-24T06:19:45.254Z,97789.41
2023-02-24T06:22:13.185Z,97789.25
2023-02-24T06:24:46.191Z,97795.38
2023-02-24T06:27:17.894Z,97782.88
2023-02-24T06:29:54.870Z,97779.63
2023-02-24T06:32:23.990Z,97773.09
2023-02-24T06:34:51.788Z,97770.72
2023-02-24T06:37:18.592Z,97784.03
2023-02-24T06:39:45.870Z,97780.06
2023-02-24T06:42:12.882Z,97773.72
2023-02-24T06:44:40.714Z,97776.28
2023-02-24T06:47:08.643Z,97777.38
2023-02-24T06:49:35.699Z,97778.34
2023-02-24T06:52:03.257Z,97773.97
2023-02-24T06:54:30.914Z,97773.41
2023-02-24T06:57:00.819Z,97777.78
2023-02-24T06:59:28.660Z,97770.41
2023-02-24T07:01:56.344Z,97768.47
2023-02-24T07:04:27.741Z,97769.31
2023-02-24T07:06:57.330Z,97764.78
2023-02-24T07:09:25.666Z,97769.56
2023-02-24T07:11:53.313Z,97762.50
2023-02-24T07:14:21.344Z,97763.50
2023-02-24T07:16:52.640Z,97768.72
2023-02-24T07:19:22.444Z,97760.66
2023-02-24T07:21:52.860Z,97767.72
2023-02-24T07:24:33.130Z,97766.19
2023-02-24T07:27:01.380Z,97767.72
2023-02-24T07:29:30.322Z,97768.72
2023-02-24T07:32:05.767Z,97761.38
2023-02-24T07:34:33.783Z,97760.53
2023-02-24T07:37:02.745Z,97760.53
2023-02-24T07:39:29.865Z,97757.97
2023-02-24T07:41:57.230Z,97762.22
2023-02-24T07:44:24.625Z,97749.78
2023-02-24T07:46:51.625Z,97758.41
2023-02-24T07:49:20.629Z,97752.78
2023-02-24T07:51:52.804Z,97747.97
2023-02-24T07:54:21.369Z,97752.22
2023-02-24T07:56:56.519Z,97747.00
2023-02-24T07:59:32.619Z,97747.00
2023-02-24T08:02:00.577Z,97739.50
2023-02-24T08:04:30.071Z,97735.66
2023-02-24T08:06:58.732Z,97724.91
2023-02-24T08:09:45.940Z,97714.28
2023-02-24T08:12:21.948Z,97724.63
2023-02-24T08:14:52.292Z,97717.28
2023-02-24T08:17:23.526Z,97711.06
2023-02-24T08:20:01.106Z,97728.75
2023-02-24T08:22:36.015Z,97714.31
2023-02-24T08:25:06.288Z,97717.16
2023-02-24T08:27:38.799Z,97715.44
2023-02-24T08:30:07.763Z,97704.81
2023-02-24T08:32:37.398Z,97707.09
2023-02-24T08:35:05.891Z,97701.56
2023-02-24T08:37:39.799Z,97700.44
2023-02-24T08:40:18.559Z,97695.34
2023-02-24T08:42:45.371Z,97697.34
2023-02-24T08:45:14.382Z,97695.22
2023-02-24T08:47:42.099Z,97693.34
2023-02-24T08:50:10.238Z,97693.78
2023-02-24T08:52:39.205Z,97686.88
2023-02-24T08:55:10.674Z,97696.63
2023-02-24T08:57:37.454Z,97682.31
2023-02-24T09:00:07.110Z,97689.16
2023-02-24T09:02:39.528Z,97684.16
2023-02-24T09:05:12.483Z,97673.97
2023-02-24T09:07:41.379Z,97677.66
2023-02-24T09:10:17.767Z,97669.28
2023-02-24T09:12:44.893Z,97662.81
2023-02-24T09:15:15.402Z,97663.78
2023-02-24T09:17:46.126Z,97653.00
2023-02-24T09:20:27.889Z,97640.25
2023-02-24T09:23:00.674Z,97643.81
2023-02-24T09:25:40.846Z,97665.66
2023-02-24T09:28:21.233Z,97677.25
2023-02-24T09:30:55.375Z,97660.25
2023-02-24T09:33:41.830Z,97651.31
2023-02-24T09:36:10.140Z,97640.97
2023-02-24T09:39:00.136Z,97632.91
2023-02-24T09:42:07.600Z,97629.78
2023-02-24T09:44:46.049Z,97636.75
2023-02-24T09:47:20.036Z,97638.84
2023-02-24T09:49:56.395Z,97640.00
2023-02-24T09:52:39.797Z,97646.78
2023-02-24T09:55:25.654Z,97636.88
2023-02-24T09:58:18.221Z,97639.25
2023-02-24T10:01:21.134Z,97626.09
2023-02-24T10:04:14.945Z,97632.34
2023-02-24T10:07:09.129Z,97617.31
2023-02-24T10:09:41.731Z,97617.03
2023-02-24T10:12:13.787Z,97614.34
2023-02-24T10:15:20.143Z,97599.59
2023-02-24T10:18:29.013Z,97592.47
2023-02-24T10:21:09.745Z,97585.25
2023-02-24T10:23:45.790Z,97583.41
2023-02-24T10:26:31.871Z,97583.81
2023-02-24T10:29:02.534Z,97577.31
2023-02-24T10:31:35.518Z,97567.94
2023-02-24T10:34:07.890Z,97569.91
2023-02-24T10:36:35.645Z,97580.13
2023-02-24T10:39:27.027Z,97573.72
2023-02-24T10:41:58.964Z,97571.72
2023-02-24T10:44:36.501Z,97569.88
2023-02-24T10:47:13.420Z,97563.34
2023-02-24T10:49:57.185Z,97556.97
2023-02-24T10:52:43.074Z,97558.66
2023-02-24T10:55:28.372Z,97549.72
2023-02-24T10:58:07.627Z,97539.88
2023-02-24T11:00:59.955Z,97534.19
2023-02-24T11:03:42.287Z,97537.78
2023-02-24T11:06:42.035Z,97514.50
2023-02-24T11:09:27.307Z,97507.78
2023-02-24T11:12:13.894Z,97508.38
2023-02-24T11:15:13.210Z,97494.91
2023-02-24T11:17:54.252Z,97488.03
2023-02-24T11:20:48.061Z,97486.09
2023-02-24T11:23:24.732Z,97499.13
2023-02-24T11:25:53.627Z,97481.34
2023-02-24T11:28:32.492Z,97480.34
2023-02-24T11:31:26.259Z,97489.66
2023-02-24T11:34:18.172Z,97477.13
2023-02-24T11:36:58.185Z,97464.19
2023-02-24T11:39:39.358Z,97460.03
2023-02-24T11:42:11.403Z,97453.47
2023-02-24T11:44:41.419Z,97451.09
2023-02-24T11:47:15.488Z,97450.16
2023-02-24T11:50:21.374Z,97459.94
2023-02-24T11:52:48.485Z,97445.13
2023-02-24T11:55:40.163Z,97444.28
2023-02-24T11:58:48.682Z,97439.97
2023-02-24T12:01:24.414Z,97436.50
2023-02-24T12:04:10.358Z,97421.69
2023-02-24T12:07:10.679Z,97421.31
2023-02-24T12:10:06.920Z,97412.53
2023-02-24T12:12:53.394Z,97409.69
2023-02-24T12:15:35.583Z,97408.19
2023-02-24T12:18:42.675Z,97397.91
2023-02-24T12:21:15.112Z,97395.44
2023-02-24T12:23:44.395Z,97400.97
2023-02-24T12:26:42.816Z,97397.50
2023-02-24T12:29:45.102Z,97386.38
2023-02-24T12:32:30.325Z,97379.78
2023-02-24T12:35:19.928Z,97373.09
2023-02-24T12:38:09.473Z,97376.09
2023-02-24T12:40:48.135Z,97372.00
2023-02-24T12:43:45.200Z,97362.19
2023-02-24T12:46:30.742Z,97361.06
2023-02-24T12:49:30.123Z,97347.41
2023-02-24T12:52:39.710Z,97358.03
2023-02-24T12:55:23.652Z,97350.41
2023-02-24T12:58:17.883Z,97344.03
2023-02-24T13:01:04.909Z,97336.09
2023-02-24T13:03:55.128Z,97331.34
2023-02-24T13:06:47.370Z,97325.97
2023-02-24T13:09:21.147Z,97330.38
2023-02-24T13:11:51.166Z,97320.19
2023-02-24T13:14:23.838Z,97307.56
2023-02-24T13:16:50.936Z,97318.22
2023-02-24T13:19:22.303Z,97316.16
2023-02-24T13:21:56.444Z,97310.06
2023-02-24T13:24:23.934Z,97298.91
2023-02-24T13:26:51.029Z,97301.09
2023-02-24T13:29:17.888Z,97307.69
2023-02-24T13:31:49.633Z,97300.47
2023-02-24T13:34:33.104Z,97294.75
2023-02-24T13:37:00.250Z,97292.06
2023-02-24T13:39:38.332Z,97289.84
2023-02-24T13:42:25.969Z,97287.81
2023-02-24T13:45:03.026Z,97290.81
2023-02-24T13:48:11.657Z,97285.25
2023-02-24T13:50:52.236Z,97277.69
2023-02-24T13:53:25.569Z,97275.97
2023-02-24T13:55:58.694Z,97277.53
2023-02-24T13:58:32.055Z,97271.41
2023-02-24T14:01:14.056Z,97270.06
2023-02-24T14:03:43.784Z,97276.81
2023-02-24T14:06:26.000Z,97266.88
2023-02-24T14:08:55.045Z,97268.34
2023-02-24T14:11:26.153Z,97264.00
2023-02-24T14:13:54.191Z,97267.16
2023-02-24T14:16:29.408Z,97259.91
2023-02-24T14:18:58.132Z,97253.34
2023-02-24T14:21:26.753Z,97243.88
2023-02-24T14:24:01.714Z,97240.34
2023-02-24T14:26:30.408Z,97226.69
2023-02-24T14:29:00.691Z,97215.41
2023-02-24T14:31:27.818Z,97208.16
2023-02-24T14:33:58.281Z,97208.81
2023-02-24T14:36:29.322Z,97207.81
2023-02-24T14:39:19.280Z,97210.38
2023-02-24T14:41:46.565Z,97205.97
2023-02-24T14:44:29.200Z,97206.13
2023-02-24T14:46:57.817Z,97202.75
2023-02-24T14:49:27.273Z,97195.00
2023-02-24T14:52:09.674Z,97194.00
2023-02-24T14:54:36.729Z,97182.69
2023-02-24T14:57:03.488Z,97185.19
2023-02-24T14:59:37.849Z,97178.78
2023-02-24T15:02:05.420Z,97175.59
2023-02-24T15:04:37.585Z,97172.22
2023-02-24T15:07:06.790Z,97175.56
2023-02-24T15:09:41.958Z,97165.63
2023-02-24T15:13:00.745Z,97160.41
2023-02-24T15:15:29.754Z,97139.50
2023-02-24T15:18:04.131Z,97135.59
2023-02-24T15:20:36.408Z,97135.59
2023-02-24T15:23:03.270Z,97131.91
2023-02-24T15:25:42.330Z,97126.50
2023-02-24T15:28:32.048Z,97132.91
2023-02-24T15:31:08.523Z,97132.06
2023-02-24T15:33:41.759Z,97124.97
2023-02-24T15:36:17.255Z,97122.94
2023-02-24T15:38:44.439Z,97126.84
2023-02-24T15:41:12.398Z,97120.59
2023-02-24T15:43:46.428Z,97115.38
2023-02-24T15:46:30.695Z,97121.59
2023-02-24T15:49:01.743Z,97113.28
2023-02-24T15:51:33.966Z,97113.16
2023-02-24T15:54:01.447Z,97109.47
2023-02-24T15:56:28.879Z,97107.75
2023-02-24T15:58:55.662Z,97100.34
2023-02-24T16:01:22.782Z,97105.50
2023-02-24T16:03:49.804Z,97100.66
2023-02-24T16:06:21.245Z,97100.13
2023-02-24T16:08:48.581Z,97091.34
2023-02-24T16:11:17.166Z,97092.19
2023-02-24T16:13:45.440Z,97091.19
2023-02-24T16:16:12.912Z,97091.34
2023-02-24T16:18:39.728Z,97082.75
2023-02-24T16:21:07.007Z,97081.72
2023-02-24T16:23:40.313Z,97085.63
2023-02-24T16:26:12.927Z,97094.69
2023-02-24T16:28:39.706Z,97117.31
2023-02-24T16:31:07.440Z,97103.13
2023-02-24T16:33:51.934Z,97104.31
2023-02-24T16:36:23.439Z,97117.13
2023-02-24T16:38:51.773Z,97086.59
2023-02-24T16:41:18.980Z,97090.31
2023-02-24T16:43:45.795Z,97076.66
2023-02-24T16:46:18.155Z,97080.69
2023-02-24T16:48:46.181Z,97081.72
2023-02-24T16:51:13.391Z,97081.72
2023-02-24T16:53:40.377Z,97075.44
2023-02-24T16:56:07.887Z,97063.00
2023-02-24T16:58:34.727Z,97060.94
2023-02-24T17:01:02.870Z,97059.59
2023-02-24T17:03:42.699Z,97056.91
2023-02-24T17:06:09.848Z,97053.19
2023-02-24T17:08:36.802Z,97050.13
2023-02-24T17:11:03.962Z,97043.22
2023-02-24T17:13:30.758Z,97043.88
2023-02-24T17:15:58.055Z,97050.09
2023-02-24T17:18:25.087Z,97043.03
2023-02-24T17:20:52.262Z,97050.94
2023-02-24T17:23:19.283Z,97052.13
2023-02-24T17:25:47.464Z,97042.50
2023-02-24T17:28:14.223Z,97044.84
2023-02-24T17:30:41.440Z,97053.09
2023-02-24T17:33:08.412Z,97045.34
2023-02-24T17:35:35.511Z,97047.88
2023-02-24T17:38:02.717Z,97056.28
2023-02-24T17:40:29.846Z,97049.19
2023-02-24T17:42:56.582Z,97037.75
2023-02-24T17:45:23.598Z,97036.03
2023-02-24T17:47:52.716Z,97042.63
2023-02-24T17:50:19.827Z,97035.69
2023-02-24T17:52:46.743Z,97025.06
2023-02-24T17:55:13.925Z,97030.63
2023-02-24T17:57:40.789Z,97011.75
2023-02-24T18:00:08.687Z,97016.16
2023-02-24T18:02:35.605Z,97008.53
2023-02-24T18:05:02.868Z,97016.63
2023-02-24T18:07:29.822Z,97007.88
2023-02-24T18:09:56.997Z,97006.16
2023-02-24T18:12:24.684Z,97005.66
2023-02-24T18:15:06.990Z,96993.22
2023-02-24T18:17:35.735Z,96981.56
2023-02-24T18:20:03.978Z,96988.97
2023-02-24T18:22:30.782Z,96987.28
2023-02-24T18:24:59.176Z,96969.44
2023-02-24T18:27:26.049Z,96977.53
2023-02-24T18:29:53.907Z,96976.84
2023-02-24T18:32:20.917Z,96968.06
2023-02-24T18:34:48.286Z,96959.31
2023-02-24T18:37:15.117Z,96956.44
2023-02-24T18:39:42.304Z,96954.94
2023-02-24T18:42:09.688Z,96955.94
2023-02-24T18:44:36.805Z,96954.22
2023-02-24T18:47:09.341Z,96947.34
2023-02-24T18:49:36.952Z,96934.69
2023-02-24T18:52:05.386Z,96928.81
2023-02-24T18:54:33.342Z,96928.81
2023-02-24T18:57:00.111Z,96918.34
2023-02-24T18:59:27.180Z,96924.41
2023-02-24T19:01:56.713Z,96932.50
2023-02-24T19:04:24.262Z,96914.66
2023-02-24T19:06:51.057Z,96910.28
2023-02-24T19:09:21.809Z,96914.16
2023-02-24T19:11:49.642Z,96909.44
2023-02-24T19:14:16.865Z,96903.38
2023-02-24T19:16:43.754Z,96899.16
2023-02-24T19:19:13.533Z,96886.50
2023-02-24T19:21:40.307Z,96881.44
2023-02-24T19:24:08.462Z,96880.44
2023-02-24T19:26:35.382Z,96875.91
2023-02-24T19:29:03.895Z,96867.97
2023-02-24T19:31:31.235Z,96864.63
2023-02-24T19:34:03.073Z,96859.22
2023-02-24T19:36:30.727Z,96862.94
2023-02-24T19:38:57.893Z,96857.03
2023-02-24T19:41:24.734Z,96844.25
2023-02-24T19:43:52.076Z,96843.41
2023-02-24T19:46:19.048Z,96845.25
2023-02-24T19:48:46.235Z,96835.66
2023-02-24T19:51:17.491Z,96836.34
2023-02-24T19:53:44.652Z,96823.88
2023-02-24T19:56:11.630Z,96826.56
2023-02-24T19:58:38.870Z,96826.72
2023-02-24T20:01:10.206Z,96817.50
2023-02-24T20:03:38.248Z,96816.31
2023-02-24T20:06:05.385Z,96810.91
2023-02-24T20:08:34.663Z,96816.47
2023-02-24T20:11:02.430Z,96810.41
2023-02-24T20:13:29.873Z,96808.75
2023-02-24T20:16:12.971Z,96811.59
2023-02-24T20:18:40.682Z,96804.53
2023-02-24T20:21:07.792Z,96801.31
2023-02-24T20:23:35.009Z,96797.63
2023-02-24T20:26:02.024Z,96798.28
2023-02-24T20:28:29.452Z,96793.06
2023-02-24T20:30:57.402Z,96796.28
2023-02-24T20:33:24.894Z,96791.88
2023-02-24T20:35:51.646Z,96786.97
2023-02-24T20:38:18.770Z,96790.34
2023-02-24T20:40:45.552Z,96791.88
2023-02-24T20:43:12.645Z,96793.00
2023-02-24T20:45:40.921Z,96783.38
2023-02-24T20:48:08.888Z,96780.88
2023-02-24T20:50:36.054Z,96783.38
2023-02-24T20:53:04.299Z,96783.72
2023-02-24T20:55:31.356Z,96778.19
2023-02-24T20:57:58.454Z,96765.06
2023-02-24T21:00:25.591Z,96760.00
2023-02-24T21:02:52.931Z,96758.66
2023-02-24T21:05:21.531Z,96755.59
2023-02-24T21:07:49.896Z,96743.19
2023-02-24T21:10:17.713Z,96744.88
2023-02-24T21:12:45.228Z,96738.63
2023-02-24T21:15:12.434Z,96748.03
2023-02-24T21:17:39.880Z,96746.19
2023-02-24T21:20:11.177Z,96741.13
2023-02-24T21:22:39.355Z,96741.81
2023-02-24T21:25:10.885Z,96734.41
2023-02-24T21:27:38.411Z,96748.88
2023-02-24T21:30:06.461Z,96742.63
2023-02-24T21:32:33.914Z,96729.00
2023-02-24T21:35:00.725Z,96724.34
2023-02-24T21:37:28.041Z,96723.97
2023-02-24T21:39:54.767Z,96716.25
2023-02-24T21:42:22.508Z,96723.97
2023-02-24T21:44:52.106Z,96716.09
2023-02-24T21:47:20.425Z,96704.47
2023-02-24T21:49:47.209Z,96700.59
2023-02-24T21:52:14.343Z,96699.97
2023-02-24T21:54:42.335Z,96698.41
2023-02-24T21:57:09.371Z,96703.63
2023-02-24T21:59:36.144Z,96702.97
2023-02-24T22:02:03.313Z,96698.75
2023-02-24T22:04:30.137Z,96702.13
2023-02-24T22:06:57.203Z,96701.59
2023-02-24T22:09:23.966Z,96706.16
2023-02-24T22:11:51.124Z,96702.09
2023-02-24T22:14:18.119Z,96694.72
2023-02-24T22:16:45.246Z,96707.84
2023-02-24T22:19:12.040Z,96711.22
2023-02-24T22:21:41.686Z,96683.28
2023-02-24T22:24:10.048Z,96686.81
2023-02-24T22:26:37.277Z,96678.56
2023-02-24T22:29:04.952Z,96674.03
2023-02-24T22:31:32.721Z,96676.19
2023-02-24T22:33:59.903Z,96671.50
2023-02-24T22:36:28.797Z,96674.66
2023-02-24T22:38:56.417Z,96680.59
2023-02-24T22:41:25.806Z,96670.34
2023-02-24T22:43:53.992Z,96670.81
2023-02-24T22:46:32.222Z,96666.09
2023-02-24T22:48:59.124Z,96675.38
2023-02-24T22:51:26.646Z,96660.72
2023-02-24T22:53:53.670Z,96663.59
2023-02-24T22:56:22.890Z,96666.28
2023-02-24T22:58:50.099Z,96674.34
2023-02-24T23:01:22.276Z,96655.84
2023-02-24T23:03:49.410Z,96662.41
2023-02-24T23:06:21.890Z,96661.38
2023-02-24T23:08:49.641Z,96668.78
2023-02-24T23:11:21.634Z,96678.38
2023-02-24T23:13:49.225Z,96670.63
2023-02-24T23:16:18.632Z,96667.94
2023-02-24T23:18:56.289Z,96653.81
2023-02-24T23:21:24.947Z,96660.03
2023-02-24T23:23:56.930Z,96644.88
2023-02-24T23:26:31.839Z,96638.84
2023-02-24T23:28:58.715Z,96642.19
2023-02-24T23:31:25.825Z,96651.97
2023-02-24T23:33:53.590Z,96655.81
2023-02-24T23:36:22.197Z,96647.75
2023-02-24T23:38:49.257Z,96633.63
2023-02-24T23:41:16.554Z,96640.53
2023-02-24T23:43:43.425Z,96625.41
2023-02-24T23:46:11.515Z,96631.97
2023-02-24T23:48:38.719Z,96624.72
2023-02-24T23:51:07.137Z,96616.81
2023-02-24T23:53:41.279Z,96614.28
2023-02-24T23:56:09.752Z,96606.22
2023-02-24T23:58:37.339Z,96604.38
